الصفحة الرئيسية
METAR-TAF:

METAR-TAF

مطار :

مكسيكالي, المكسيك

دائرة عرض: 32-37-50N, خط طول: 115-14-30W, ارتفاع: 22 متر

مراقبة الطقس الحالي

تاريخ ووقت الإصدار 7ساعات و 42 دقيقة قبل الساعة 02:41UTC
ريح 6 عقدة من الغرب/الشمال الغربي
درجة الحرارة 34°درجة مئوية
الرطوبة 11%
ضغط 1010 hPa
الرؤية: 16.1 كم
سماء صافية

METAR: MMML 290241Z 29006KT 10SM SKC 34/M01 A2983 RMK SLP102 52010 923

زمن: 05:23 (10:23 UTC)

توقعات

تاريخ ووقت الإصدار 6ساعات و 14 دقيقة قبل الساعة 04:09UTC
التوقعات صالحة من29 الساعة 06 UTC إلى 30 الساعة 06 UTC
ريح 5 عقدة من الغرب/الشمال الغربي
الرؤية: 10 كم
سماء صافية
من 29 الساعة 1800 UTC
ريح 10 عقدة من الغرب/الشمال الغربي
الرؤية: 10 كم
سماء صافية
من 30 الساعة 0300 UTC
ريح 5 عقدة من الشمال/الشمال الغربي
الرؤية: 10 كم
سماء صافية

TAF: MMML 290409Z 2906/3006 30005KT P6SM SKC FM291800 30010KT P6SM SKC FM300300 33005KT P6SM SKC

أرصاد الطقس والتوقعات من أكثر من 4000 مطار (تقارير الطقس للمطار METAR والتنبؤ بالطقس بالمطارTAF).

المحطات المتاحة هي النقط الصفراء والحمراء على الخريطة.

حرك المؤشر فوق النقطة لمعرفة اسم المحطة.

ثم انقر لمعرفة أرصاد وتوقعات الطقس.

لتغيير الخارطة: اضغط على الأزرار الخضراء مع رمز الصليب الأسود للتكبير. على الزر الأخضر مع شرطة للتصغير، أو على الأسهم الخضراء للخرائط المجاورة.


METAR-TAF: